Time;durP1;ratioP1;P1;durP2;ratioP2;P2;SDS_P1;SDS_P2;PMS_P1;PMS_P2;Temp;Humidity;BMP_temperature;BMP_pressure;BME280_temperature;BME280_humidity;BME280_pressure;Samples;Min_cycle;Max_cycle;Signal;HPM_P1;HPM_P2
2023/04/11 00:01:28;;;;;;;;;20.00;18.25;18.10;42.60;;;;;;110525;1249;50347;-63
2023/04/11 00:03:55;;;;;;;;;23.00;21.00;18.20;42.30;;;;;;110557;1250;49840;-63
2023/04/11 00:06:23;;;;;;;;;22.33;21.00;18.40;42.10;;;;;;110330;1249;44940;-62
2023/04/11 00:08:51;;;;;;;;;22.00;20.25;18.60;41.90;;;;;;110568;1249;55631;-62
2023/04/11 00:11:18;;;;;;;;;24.25;21.00;18.70;42.10;;;;;;110546;1249;54425;-62
2023/04/11 00:13:46;;;;;;;;;21.75;18.00;18.80;41.40;;;;;;110585;1244;49630;-60
2023/04/11 00:16:15;;;;;;;;;19.33;18.00;18.90;41.20;;;;;;110377;1251;50482;-61
2023/04/11 00:18:43;;;;;;;;;20.67;17.33;19.10;41.10;;;;;;110498;1244;44838;-61
2023/04/11 00:21:10;;;;;;;;;20.75;18.50;19.20;40.80;;;;;;110585;1247;54523;-62
2023/04/11 00:23:37;;;;;;;;;26.25;22.00;19.30;40.60;;;;;;110562;1248;54852;-62
2023/04/11 00:26:05;;;;;;;;;20.00;18.75;19.40;40.50;;;;;;110471;1246;49094;-63
2023/04/11 00:28:32;;;;;;;;;20.67;19.00;19.40;40.30;;;;;;110537;1246;49612;-62
2023/04/11 00:31:01;;;;;;;;;24.25;19.00;19.50;40.10;;;;;;110535;1250;44834;-61
2023/04/11 00:33:28;;;;;;;;;21.75;18.50;19.60;40.00;;;;;;110559;1249;55365;-63
2023/04/11 00:35:55;;;;;;;;;22.67;20.00;19.60;39.80;;;;;;110365;1245;54797;-62
2023/04/11 00:38:21;;;;;;;;;22.75;17.75;19.70;39.70;;;;;;110604;1249;50345;-64
2023/04/11 00:40:48;;;;;;;;;19.33;17.00;19.70;39.60;;;;;;110581;1245;50906;-63
2023/04/11 00:43:15;;;;;;;;;25.00;19.00;19.80;39.50;;;;;;110553;1244;45552;-63
2023/04/11 00:45:42;;;;;;;;;20.00;18.25;19.80;39.40;;;;;;110358;1246;54226;-63
2023/04/11 00:48:09;;;;;;;;;21.00;19.67;19.80;39.30;;;;;;110681;1248;54337;-61
2023/04/11 00:50:41;;;;;;;;;19.00;17.33;19.90;39.20;;;;;;110608;1247;49769;-61
2023/04/11 00:53:11;;;;;;;;;22.75;19.25;19.90;39.20;;;;;;110549;1247;50367;-62
2023/04/11 00:55:38;;;;;;;;;20.67;19.00;19.90;39.10;;;;;;110364;1246;44857;-62
2023/04/11 00:58:07;;;;;;;;;23.75;19.50;19.90;39.00;;;;;;110603;1245;54410;-63
2023/04/11 01:00:34;;;;;;;;;19.25;17.50;20.00;38.90;;;;;;110594;1244;54240;-62
2023/04/11 01:03:01;;;;;;;;;19.50;18.00;20.00;38.90;;;;;;110609;1249;49331;-62
2023/04/11 01:05:29;;;;;;;;;19.00;17.50;20.00;38.80;;;;;;110378;1249;49654;-61
2023/04/11 01:07:57;;;;;;;;;18.00;16.25;20.00;38.80;;;;;;110593;1249;44840;-62
2023/04/11 01:10:27;;;;;;;;;21.25;18.75;20.00;38.70;;;;;;110634;1249;54186;-62
2023/04/11 01:12:56;;;;;;;;;21.00;17.50;20.10;38.70;;;;;;110587;1245;53670;-62
2023/04/11 01:15:23;;;;;;;;;16.00;14.50;20.00;38.60;;;;;;110330;1249;50845;-61
2023/04/11 01:17:54;;;;;;;;;18.50;16.75;20.00;38.50;;;;;;110576;1250;49711;-62
2023/04/11 01:20:23;;;;;;;;;19.00;17.00;20.10;38.50;;;;;;110568;1246;45962;-62
2023/04/11 01:22:50;;;;;;;;;20.67;18.33;20.00;38.40;;;;;;110596;1249;54745;-62
2023/04/11 01:25:20;;;;;;;;;21.00;17.00;20.00;38.10;;;;;;110390;1247;54382;-62
2023/04/11 01:27:48;;;;;;;;;19.25;16.25;20.00;38.40;;;;;;110675;1244;49681;-63
2023/04/11 01:30:15;;;;;;;;;22.75;21.50;20.00;38.30;;;;;;110609;1249;51853;-63
2023/04/11 01:32:42;;;;;;;;;20.00;16.33;20.00;38.30;;;;;;110561;1249;44755;-63
2023/04/11 01:35:11;;;;;;;;;19.75;17.75;20.00;38.30;;;;;;110371;1249;55229;-63
2023/04/11 01:37:38;;;;;;;;;19.33;18.33;20.00;38.50;;;;;;110719;1248;54475;-63
2023/04/11 01:40:06;;;;;;;;;16.75;15.00;20.00;38.50;;;;;;110712;1248;50121;-63
2023/04/11 01:42:33;;;;;;;;;19.75;18.00;20.10;38.70;;;;;;110527;1244;49521;-61
2023/04/11 01:45:02;;;;;;;;;18.00;17.00;20.10;39.00;;;;;;110369;1246;45002;-62
2023/04/11 01:47:29;;;;;;;;;19.00;15.75;20.10;38.90;;;;;;110826;1244;55494;-62
2023/04/11 01:49:56;;;;;;;;;17.50;16.00;20.20;38.90;;;;;;110808;1244;54065;-63
2023/04/11 01:52:23;;;;;;;;;21.67;20.00;20.20;39.10;;;;;;110833;1247;50233;-61
2023/04/11 01:54:50;;;;;;;;;20.50;17.50;20.30;39.00;;;;;;110464;1248;50081;-61
2023/04/11 01:57:17;;;;;;;;;14.00;12.75;20.30;39.10;;;;;;110710;1248;45401;-62
2023/04/11 01:59:44;;;;;;;;;16.00;14.75;20.40;39.10;;;;;;110800;1244;54995;-63
2023/04/11 02:02:11;;;;;;;;;16.00;14.67;20.50;39.20;;;;;;110785;1244;54216;-63
2023/04/11 02:04:38;;;;;;;;;18.00;16.75;20.60;39.20;;;;;;110562;1243;49768;-62
2023/04/11 02:07:06;;;;;;;;;17.00;15.50;20.60;39.30;;;;;;110738;1243;49747;-62
2023/04/11 02:09:33;;;;;;;;;18.00;16.67;20.70;39.40;;;;;;110828;1244;45863;-62
2023/04/11 02:12:00;;;;;;;;;16.75;15.50;20.80;39.20;;;;;;110803;1247;54643;-62
2023/04/11 02:14:39;;;;;;;;;19.67;16.00;20.80;39.20;;;;;;110631;1248;53900;-62
2023/04/11 02:17:08;;;;;;;;;16.50;14.75;20.90;39.30;;;;;;110651;1244;49366;-62
2023/04/11 02:19:37;;;;;;;;;16.67;14.67;21.00;39.10;;;;;;110554;1247;49262;-62
2023/04/11 02:22:04;;;;;;;;;17.25;15.25;21.10;39.00;;;;;;110612;1249;45130;-62
2023/04/11 02:24:31;;;;;;;;;14.00;12.00;21.10;38.90;;;;;;110538;1248;54685;-63
2023/04/11 02:27:00;;;;;;;;;18.00;16.50;21.20;39.10;;;;;;110581;1244;53294;-62
2023/04/11 02:29:27;;;;;;;;;16.75;15.50;21.30;39.00;;;;;;110577;1249;49186;-63
2023/04/11 02:31:55;;;;;;;;;18.67;16.33;21.30;38.70;;;;;;110536;1246;49697;-63
2023/04/11 02:34:22;;;;;;;;;18.00;16.00;21.30;38.60;;;;;;110513;1244;44579;-63
2023/04/11 02:36:48;;;;;;;;;15.00;14.00;21.40;38.60;;;;;;110495;1244;55445;-63
2023/04/11 02:39:16;;;;;;;;;16.50;15.00;21.40;38.50;;;;;;110739;1249;54480;-63
2023/04/11 02:41:42;;;;;;;;;18.67;17.00;21.40;38.40;;;;;;110617;1245;49756;-63
2023/04/11 02:44:10;;;;;;;;;15.33;14.00;21.50;38.40;;;;;;110686;1250;50611;-63
2023/04/11 02:46:37;;;;;;;;;17.00;15.67;21.50;38.40;;;;;;110402;1245;44696;-64
2023/04/11 02:49:04;;;;;;;;;19.00;16.50;21.50;38.90;;;;;;110654;1249;55297;-64
2023/04/11 02:51:32;;;;;;;;;16.67;14.67;21.50;38.10;;;;;;110680;1244;54666;-63
2023/04/11 02:53:59;;;;;;;;;15.25;13.75;21.50;38.10;;;;;;110594;1248;49868;-64
2023/04/11 02:56:29;;;;;;;;;14.67;13.00;21.50;38.10;;;;;;110374;1244;49698;-62
2023/04/11 02:58:56;;;;;;;;;16.00;15.00;21.50;38.00;;;;;;110651;1244;46019;-62
2023/04/11 03:01:23;;;;;;;;;14.00;13.00;21.50;37.90;;;;;;110673;1244;54324;-63
2023/04/11 03:03:50;;;;;;;;;13.50;12.00;21.60;38.20;;;;;;110639;1249;53178;-64
2023/04/11 03:06:17;;;;;;;;;17.75;15.75;21.50;38.10;;;;;;110447;1244;50123;-63
2023/04/11 03:08:45;;;;;;;;;18.50;15.50;21.50;37.90;;;;;;110676;1249;50443;-62
2023/04/11 03:11:12;;;;;;;;;15.67;13.00;21.50;37.90;;;;;;110664;1249;45421;-63
2023/04/11 03:13:39;;;;;;;;;16.00;14.75;21.50;37.90;;;;;;110708;1249;54547;-62
2023/04/11 03:16:07;;;;;;;;;17.00;14.67;21.50;37.90;;;;;;110428;1244;54174;-62
2023/04/11 03:18:34;;;;;;;;;17.50;16.00;21.50;37.90;;;;;;110586;1248;49248;-62
2023/04/11 03:21:01;;;;;;;;;15.33;13.67;21.50;37.80;;;;;;110901;1247;49616;-63
2023/04/11 03:23:28;;;;;;;;;17.00;16.00;21.50;37.70;;;;;;110850;1244;45135;-63
2023/04/11 03:25:55;;;;;;;;;15.75;13.00;21.40;37.70;;;;;;110602;1244;55558;-63
2023/04/11 03:28:22;;;;;;;;;20.00;17.25;21.40;37.70;;;;;;110599;1244;54102;-62
2023/04/11 03:30:50;;;;;;;;;19.00;15.00;21.40;37.90;;;;;;110835;1244;49983;-64
2023/04/11 03:33:17;;;;;;;;;18.00;15.00;21.40;37.70;;;;;;110653;1244;49219;-63
2023/04/11 03:35:44;;;;;;;;;15.75;14.00;21.40;37.70;;;;;;110462;1244;45097;-63
2023/04/11 03:38:11;;;;;;;;;14.75;13.50;21.30;37.70;;;;;;110608;1248;54699;-64
2023/04/11 03:40:37;;;;;;;;;17.00;14.00;21.30;37.80;;;;;;110652;1247;55037;-63
2023/04/11 03:43:05;;;;;;;;;15.75;14.50;21.30;37.50;;;;;;110582;1248;49151;-62
2023/04/11 03:45:32;;;;;;;;;15.00;14.00;21.30;37.50;;;;;;110351;1243;49354;-61
2023/04/11 03:47:59;;;;;;;;;15.00;13.25;21.30;37.50;;;;;;110699;1244;44658;-61
2023/04/11 03:50:26;;;;;;;;;18.00;16.00;21.30;37.70;;;;;;110662;1248;54176;-63
2023/04/11 03:52:53;;;;;;;;;17.25;16.00;21.30;37.40;;;;;;110669;1248;53676;-63
2023/04/11 03:55:20;;;;;;;;;16.00;14.00;21.30;37.80;;;;;;110546;1247;50076;-63
2023/04/11 03:57:47;;;;;;;;;16.00;14.50;21.30;37.70;;;;;;110879;1248;50226;-63
2023/04/11 04:00:14;;;;;;;;;17.75;15.00;21.30;37.70;;;;;;110847;1247;45031;-64
2023/04/11 04:02:41;;;;;;;;;14.75;13.75;21.30;37.80;;;;;;110803;1247;55390;-63
2023/04/11 04:05:08;;;;;;;;;16.75;14.25;21.30;37.80;;;;;;110643;1244;54006;-63
2023/04/11 04:07:35;;;;;;;;;17.00;15.75;21.30;37.80;;;;;;110827;1248;50455;-63
2023/04/11 04:10:03;;;;;;;;;14.75;13.75;21.30;37.80;;;;;;110756;1244;49162;-62
2023/04/11 04:12:30;;;;;;;;;19.00;17.50;21.40;37.90;;;;;;110724;1248;45278;-62
2023/04/11 04:14:58;;;;;;;;;16.00;15.00;21.40;38.10;;;;;;110587;1247;55029;-62
2023/04/11 04:17:25;;;;;;;;;14.00;12.50;21.50;38.00;;;;;;110787;1248;54082;-62
2023/04/11 04:19:52;;;;;;;;;13.50;12.50;21.50;37.90;;;;;;110748;1245;49669;-61
2023/04/11 04:22:21;;;;;;;;;13.33;12.00;21.60;38.00;;;;;;110794;1245;49098;-61
2023/04/11 04:24:48;;;;;;;;;15.50;14.00;21.60;38.00;;;;;;110634;1244;45061;-60
2023/04/11 04:27:18;;;;;;;;;18.67;16.67;21.60;37.90;;;;;;110688;1244;54688;-60
2023/04/11 04:29:45;;;;;;;;;13.75;12.50;21.70;37.90;;;;;;110691;1248;144164;-60
2023/04/11 04:32:22;;;;;;;;;17.33;16.00;21.70;38.00;;;;;;110651;1245;50507;-61
2023/04/11 04:34:54;;;;;;;;;17.25;13.75;21.80;37.80;;;;;;110550;1248;49703;-61
2023/04/11 04:37:23;;;;;;;;;17.67;15.67;21.80;38.20;;;;;;110762;1244;45303;-62
2023/04/11 04:39:54;;;;;;;;;16.75;15.50;21.90;38.80;;;;;;110797;1244;54277;-61
2023/04/11 04:42:23;;;;;;;;;18.25;17.00;21.90;39.00;;;;;;110709;1248;53341;-61
2023/04/11 04:44:52;;;;;;;;;18.75;17.25;21.90;39.20;;;;;;110482;1244;50744;-61
2023/04/11 04:47:21;;;;;;;;;18.67;17.00;21.90;38.70;;;;;;110863;1248;50012;-60
2023/04/11 04:49:53;;;;;;;;;18.00;16.00;21.90;38.80;;;;;;110900;1245;44913;-61
2023/04/11 04:52:22;;;;;;;;;21.67;19.33;21.90;38.90;;;;;;110759;1245;55230;-65
2023/04/11 04:54:49;;;;;;;;;18.75;16.75;21.80;38.70;;;;;;110664;1243;54510;-58
2023/04/11 04:57:16;;;;;;;;;20.50;19.00;21.80;38.60;;;;;;110742;1244;49233;-65
2023/04/11 04:59:44;;;;;;;;;20.00;19.00;21.90;38.50;;;;;;110771;1246;49297;-63
2023/04/11 05:02:11;;;;;;;;;21.50;18.00;21.90;38.50;;;;;;110624;1244;45443;-65
2023/04/11 05:04:38;;;;;;;;;23.75;20.00;21.90;38.20;;;;;;110600;1247;54720;-61
2023/04/11 05:07:05;;;;;;;;;19.00;16.50;21.90;38.00;;;;;;110820;1244;54807;-61
2023/04/11 05:09:32;;;;;;;;;22.00;19.00;21.90;37.90;;;;;;110838;1248;49518;-61
2023/04/11 05:12:00;;;;;;;;;19.75;18.75;21.90;37.90;;;;;;110755;1246;49916;-61
2023/04/11 05:14:27;;;;;;;;;17.75;16.75;22.00;37.90;;;;;;110579;1244;45992;-65
2023/04/11 05:16:54;;;;;;;;;20.00;17.00;22.00;37.80;;;;;;110613;1248;54328;-62
2023/04/11 05:19:20;;;;;;;;;21.75;16.75;22.00;37.80;;;;;;110592;1248;53819;-62
2023/04/11 05:21:48;;;;;;;;;19.00;18.00;22.00;37.40;;;;;;110796;1245;49885;-61
2023/04/11 05:24:15;;;;;;;;;23.67;20.00;22.00;37.30;;;;;;110817;1247;49491;-61
2023/04/11 05:26:42;;;;;;;;;20.75;17.75;22.00;37.30;;;;;;110787;1247;44718;-62
2023/04/11 05:31:17;;;;;;;;;21.50;19.75;22.00;37.60;;;;;;108431;1273;34936;-59
2023/04/11 05:33:45;;;;;;;;;20.75;17.75;22.20;38.00;;;;;;109915;1254;45255;-57
2023/04/11 05:36:13;;;;;;;;;19.75;17.25;22.30;38.10;;;;;;110066;1251;54394;-58
2023/04/11 05:38:41;;;;;;;;;23.00;20.00;22.50;38.10;;;;;;110071;1254;53362;-57
2023/04/11 05:41:09;;;;;;;;;23.75;19.50;22.60;37.90;;;;;;110081;1257;49381;-58
2023/04/11 05:43:36;;;;;;;;;24.50;21.50;22.70;37.90;;;;;;110057;1257;49226;-59
2023/04/11 05:46:04;;;;;;;;;21.00;17.75;22.80;37.80;;;;;;110189;1254;144094;-58
2023/04/11 05:48:31;;;;;;;;;23.75;21.50;22.90;37.70;;;;;;110270;1250;53963;-59
2023/04/11 05:50:58;;;;;;;;;20.50;18.50;23.10;37.50;;;;;;110225;1251;53872;-58
2023/04/11 05:53:25;;;;;;;;;21.75;18.75;23.20;37.60;;;;;;110211;1254;49448;-59
2023/04/11 05:55:52;;;;;;;;;18.00;16.25;23.30;37.40;;;;;;110265;1250;49580;-58
2023/04/11 05:58:19;;;;;;;;;23.00;21.33;23.30;36.80;;;;;;110218;1255;45195;-60
2023/04/11 06:00:48;;;;;;;;;23.50;20.50;23.50;37.00;;;;;;110294;1249;54458;-59
2023/04/11 06:03:15;;;;;;;;;23.25;21.00;23.60;37.00;;;;;;110261;1249;53907;-59
2023/04/11 06:05:42;;;;;;;;;20.50;18.00;23.70;37.10;;;;;;110367;1250;49550;-60
2023/04/11 06:08:10;;;;;;;;;20.00;18.67;23.80;36.90;;;;;;110077;1254;49722;-59
2023/04/11 06:10:38;;;;;;;;;20.00;17.50;23.90;36.90;;;;;;110186;1250;44623;-59
2023/04/11 06:13:05;;;;;;;;;24.00;22.00;24.00;36.70;;;;;;110135;1254;54254;-57
2023/04/11 06:15:32;;;;;;;;;20.00;17.25;24.10;36.60;;;;;;110209;1251;54596;-58
2023/04/11 06:17:58;;;;;;;;;22.67;19.67;24.20;36.40;;;;;;110202;1250;49104;-60
2023/04/11 06:21:58;;;;;;;;;27.25;25.00;24.10;32.30;;;;;;107911;1279;34262;-62
2023/04/11 06:24:39;;;;;;;;;25.25;24.00;22.40;31.90;;;;;;110110;1254;44543;-62
2023/04/11 06:27:09;;;;;;;;;25.67;24.00;20.70;33.20;;;;;;110091;1257;54098;-62
2023/04/11 06:29:37;;;;;;;;;25.50;23.00;19.20;34.70;;;;;;110110;1253;53634;-62
2023/04/11 06:32:05;;;;;;;;;26.25;25.00;18.10;36.80;;;;;;109969;1257;49795;-62
2023/04/11 06:34:33;;;;;;;;;29.00;25.00;16.90;37.50;;;;;;109618;1253;608626;-62
2023/04/11 06:37:00;;;;;;;;;24.67;23.33;16.10;38.80;;;;;;110200;1250;45227;-61
2023/04/11 06:39:27;;;;;;;;;27.75;26.25;15.30;40.30;;;;;;110065;1254;53932;-60
2023/04/11 06:41:55;;;;;;;;;29.00;27.25;14.60;41.10;;;;;;110049;1256;53324;-61
2023/04/11 06:44:22;;;;;;;;;30.00;27.00;14.30;42.20;;;;;;110073;1255;49539;-60
2023/04/11 06:46:49;;;;;;;;;33.00;28.33;13.90;43.00;;;;;;110026;1254;50393;-61
2023/04/11 06:49:17;;;;;;;;;33.00;29.50;13.50;43.90;;;;;;110114;1250;45096;-62
2023/04/11 06:51:49;;;;;;;;;32.00;27.67;13.30;44.60;;;;;;110130;1250;54376;-61
2023/04/11 06:54:17;;;;;;;;;29.50;28.00;12.90;45.20;;;;;;110202;1254;53599;-61
2023/04/11 06:56:44;;;;;;;;;31.33;29.67;12.80;46.00;;;;;;110163;1251;49740;-61
2023/04/11 06:59:12;;;;;;;;;33.75;30.00;12.60;46.50;;;;;;110148;1250;49478;-62
2023/04/11 07:01:39;;;;;;;;;35.67;31.67;12.50;47.10;;;;;;110319;1254;44611;-62
2023/04/11 07:04:06;;;;;;;;;39.00;32.00;12.40;47.30;;;;;;110353;1254;55100;-62
2023/04/11 07:06:37;;;;;;;;;35.00;32.00;12.40;47.70;;;;;;110870;1247;53613;-61
2023/04/11 07:09:04;;;;;;;;;31.75;30.00;12.30;47.90;;;;;;110363;1248;49042;-62
2023/04/11 07:11:32;;;;;;;;;30.00;28.50;12.30;47.80;;;;;;110434;1252;50396;-62
2023/04/11 07:13:59;;;;;;;;;39.25;31.75;12.50;47.90;;;;;;110647;1248;45245;-64
2023/04/11 07:16:27;;;;;;;;;34.50;31.00;12.60;48.30;;;;;;110564;1247;54705;-61
2023/04/11 07:18:54;;;;;;;;;31.75;28.50;12.80;48.10;;;;;;110532;1247;54531;-61
2023/04/11 07:21:21;;;;;;;;;32.75;30.75;12.90;48.50;;;;;;110407;1248;50647;-61
2023/04/11 07:23:48;;;;;;;;;38.50;31.25;12.90;48.80;;;;;;110385;1253;49118;-61
2023/04/11 07:26:16;;;;;;;;;38.25;33.25;13.00;49.10;;;;;;110394;1248;44971;-62
2023/04/11 07:28:44;;;;;;;;;33.50;31.00;12.90;48.50;;;;;;110380;1252;54358;-62
2023/04/11 07:31:11;;;;;;;;;37.00;34.00;13.00;48.50;;;;;;110483;1252;53973;-61
2023/04/11 07:33:41;;;;;;;;;37.67;31.00;13.10;48.20;;;;;;110379;1252;49355;-62
2023/04/11 07:36:09;;;;;;;;;41.25;33.75;13.20;48.50;;;;;;110374;1247;48981;-60
2023/04/11 07:38:36;;;;;;;;;37.25;31.50;13.20;48.90;;;;;;110442;1248;45298;-61
2023/04/11 07:41:04;;;;;;;;;36.50;31.75;13.30;49.00;;;;;;110436;1252;54119;-61
2023/04/11 07:43:31;;;;;;;;;36.67;31.00;13.40;48.70;;;;;;110463;1253;53835;-61
2023/04/11 07:45:58;;;;;;;;;40.00;34.00;13.50;48.20;;;;;;110485;1247;49685;-62
2023/04/11 07:48:26;;;;;;;;;34.75;31.25;13.50;48.70;;;;;;110413;1252;49620;-62
2023/04/11 07:50:54;;;;;;;;;40.75;32.25;13.50;48.20;;;;;;110411;1247;44935;-62
2023/04/11 07:53:21;;;;;;;;;42.67;34.00;13.60;48.10;;;;;;110380;1253;54242;-62
2023/04/11 07:55:48;;;;;;;;;36.00;31.67;13.50;47.90;;;;;;110532;1248;53761;-62
2023/04/11 07:58:15;;;;;;;;;41.00;35.00;13.50;48.10;;;;;;110402;1252;49051;-61
2023/04/11 08:00:42;;;;;;;;;43.75;34.00;13.60;48.00;;;;;;110248;1249;49635;-61
2023/04/11 08:03:11;;;;;;;;;39.50;35.00;13.60;48.40;;;;;;110416;1248;45140;-62
2023/04/11 08:05:39;;;;;;;;;46.00;37.00;13.60;48.90;;;;;;110324;1248;54575;-62
2023/04/11 08:08:06;;;;;;;;;47.00;37.00;13.60;48.80;;;;;;110272;1252;54272;-62
2023/04/11 08:10:33;;;;;;;;;43.25;36.75;13.50;48.90;;;;;;111158;1241;49749;-63
2023/04/11 08:13:00;;;;;;;;;43.00;37.00;13.50;49.00;;;;;;111169;1243;49454;-62
2023/04/11 08:15:27;;;;;;;;;40.75;34.50;13.50;49.00;;;;;;111237;1244;44463;-63
2023/04/11 08:17:55;;;;;;;;;46.25;37.50;13.40;48.50;;;;;;111077;1244;54320;-62
2023/04/11 08:20:23;;;;;;;;;43.75;36.00;13.50;48.10;;;;;;111090;1242;53367;-62
2023/04/11 08:22:50;;;;;;;;;42.00;35.00;13.60;48.60;;;;;;111096;1241;49140;-62
2023/04/11 08:25:23;;;;;;;;;39.50;34.00;13.70;48.90;;;;;;111143;1241;49971;-61
2023/04/11 08:27:51;;;;;;;;;41.75;34.50;13.80;48.90;;;;;;111268;1240;44849;-62
2023/04/11 08:30:19;;;;;;;;;43.33;35.67;14.00;49.00;;;;;;111223;1243;54566;-64
2023/04/11 08:32:46;;;;;;;;;40.75;34.00;14.10;49.20;;;;;;111121;1244;53337;-62
2023/04/11 08:35:13;;;;;;;;;44.50;36.00;14.00;49.10;;;;;;111280;1244;49429;-62
2023/04/11 08:37:40;;;;;;;;;39.25;33.00;14.00;48.70;;;;;;111191;1240;49461;-61
2023/04/11 08:40:07;;;;;;;;;34.00;29.50;14.10;47.40;;;;;;111139;1240;44922;-62
2023/04/11 08:42:35;;;;;;;;;30.75;29.50;14.10;47.50;;;;;;111347;1243;54454;-61
2023/04/11 08:45:04;;;;;;;;;38.00;30.75;14.10;47.10;;;;;;111272;1243;54120;-62
2023/04/11 08:47:31;;;;;;;;;33.00;29.00;14.20;47.50;;;;;;113296;1243;49460;-62
2023/04/11 08:49:58;;;;;;;;;32.00;30.75;14.40;47.50;;;;;;112161;1243;49205;-61
2023/04/11 08:52:26;;;;;;;;;34.75;30.75;14.80;47.20;;;;;;111165;1243;44854;-61
2023/04/11 08:54:53;;;;;;;;;35.00;30.75;14.70;47.40;;;;;;111268;1240;55124;-61
2023/04/11 08:57:26;;;;;;;;;33.00;30.67;14.60;47.60;;;;;;111132;1239;54839;-61
2023/04/11 08:59:54;;;;;;;;;37.00;30.75;14.40;47.70;;;;;;111103;1240;49441;-61
2023/04/11 09:02:22;;;;;;;;;36.25;33.00;14.10;47.50;;;;;;111147;1239;48806;-63
2023/04/11 09:04:50;;;;;;;;;29.75;27.00;14.00;47.70;;;;;;111221;1241;44802;-62
2023/04/11 09:07:18;;;;;;;;;33.33;31.00;13.80;46.90;;;;;;111165;1244;54854;-62
2023/04/11 09:09:45;;;;;;;;;31.50;29.00;13.80;46.30;;;;;;111137;1243;53667;-62
2023/04/11 09:12:12;;;;;;;;;34.00;29.00;13.90;46.00;;;;;;111162;1241;50517;-62
2023/04/11 09:14:40;;;;;;;;;26.33;25.00;13.90;45.70;;;;;;111193;1244;49504;-62
2023/04/11 09:17:15;;;;;;;;;34.00;29.25;14.00;45.30;;;;;;111235;1239;46097;-62
2023/04/11 09:19:42;;;;;;;;;25.75;22.75;14.00;45.40;;;;;;111060;1241;55178;-62
2023/04/11 09:22:10;;;;;;;;;24.25;22.75;14.10;45.80;;;;;;111146;1239;53768;-62
2023/04/11 09:24:37;;;;;;;;;31.25;22.00;14.30;45.00;;;;;;111199;1243;50425;-62
2023/04/11 09:27:07;;;;;;;;;25.75;21.25;14.30;43.60;;;;;;111146;1239;49496;-61
2023/04/11 09:29:42;;;;;;;;;26.00;23.00;14.30;43.50;;;;;;111151;1242;44973;-62
2023/04/11 09:32:27;;;;;;;;;25.00;23.67;14.20;43.40;;;;;;111142;1240;56064;-62
2023/04/11 09:35:09;;;;;;;;;25.00;23.75;14.20;43.50;;;;;;111188;1240;54590;-59
2023/04/11 09:37:51;;;;;;;;;28.00;22.33;14.30;44.00;;;;;;111239;1243;50717;-62
2023/04/11 09:40:21;;;;;;;;;31.75;28.25;14.50;43.00;;;;;;111206;1243;50456;-62
2023/04/11 09:42:56;;;;;;;;;26.25;23.50;14.50;42.10;;;;;;111191;1243;45154;-63
2023/04/11 09:45:24;;;;;;;;;26.50;25.25;14.40;42.10;;;;;;111186;1240;54601;-61
2023/04/11 09:47:57;;;;;;;;;25.75;23.75;14.40;41.80;;;;;;111091;1240;54215;-62
2023/04/11 09:50:25;;;;;;;;;28.00;24.00;14.50;42.20;;;;;;111304;1243;49246;-62
2023/04/11 09:52:54;;;;;;;;;23.50;22.00;14.60;41.70;;;;;;111312;1243;49983;-63
2023/04/11 09:55:23;;;;;;;;;25.00;23.50;14.80;42.00;;;;;;111202;1240;45084;-63
2023/04/11 09:57:51;;;;;;;;;22.75;21.50;14.80;41.00;;;;;;111255;1243;54341;-62
2023/04/11 10:00:27;;;;;;;;;24.67;21.33;14.80;39.90;;;;;;111114;1240;53964;-64
2023/04/11 10:02:55;;;;;;;;;24.00;22.25;15.00;40.70;;;;;;111179;1243;49288;-62
2023/04/11 10:05:27;;;;;;;;;28.25;20.00;15.20;40.40;;;;;;111105;1241;50094;-62
2023/04/11 10:08:06;;;;;;;;;22.00;20.50;15.30;40.10;;;;;;111146;1241;45196;-62
2023/04/11 10:10:35;;;;;;;;;24.75;21.75;15.50;39.10;;;;;;111155;1240;55619;-60
2023/04/11 10:13:02;;;;;;;;;18.50;17.25;15.50;38.40;;;;;;111120;1241;54480;-62
2023/04/11 10:15:29;;;;;;;;;22.67;19.00;15.40;37.00;;;;;;111324;1244;50486;-62
2023/04/11 10:18:10;;;;;;;;;22.00;20.00;15.20;38.00;;;;;;111188;1240;50491;-60
2023/04/11 10:20:44;;;;;;;;;22.33;20.00;15.30;38.60;;;;;;111147;1244;45212;-60
2023/04/11 10:23:13;;;;;;;;;20.00;18.50;15.40;37.90;;;;;;111180;1243;54330;-62
2023/04/11 10:25:57;;;;;;;;;22.50;17.00;15.70;38.50;;;;;;111097;1241;55067;-62
2023/04/11 10:28:39;;;;;;;;;25.33;22.00;15.80;37.90;;;;;;111074;1240;49124;-62
2023/04/11 10:31:16;;;;;;;;;22.25;19.75;15.80;38.30;;;;;;111095;1240;49572;-62
2023/04/11 10:34:13;;;;;;;;;23.00;20.00;16.00;37.80;;;;;;111256;1243;45477;-62
2023/04/11 10:37:03;;;;;;;;;22.50;20.00;16.20;37.90;;;;;;111424;1243;54054;-61
2023/04/11 10:39:50;;;;;;;;;19.50;17.25;16.30;36.80;;;;;;111037;1245;53777;-61
2023/04/11 10:42:31;;;;;;;;;26.50;20.75;16.30;35.50;;;;;;111033;1243;50415;-61
2023/04/11 10:45:23;;;;;;;;;23.67;22.00;16.30;36.50;;;;;;111026;1240;49649;-61
2023/04/11 10:48:02;;;;;;;;;23.00;21.25;16.20;37.00;;;;;;111163;1240;44911;-61
2023/04/11 10:50:31;;;;;;;;;21.00;18.50;16.30;36.80;;;;;;111319;1239;54452;-61
2023/04/11 10:53:00;;;;;;;;;24.00;20.50;16.30;36.70;;;;;;111162;1240;53848;-62
2023/04/11 10:55:31;;;;;;;;;21.25;18.25;16.30;36.60;;;;;;111207;1243;49801;-62
2023/04/11 10:58:10;;;;;;;;;23.50;20.50;16.30;37.10;;;;;;111339;1243;49026;-60
2023/04/11 11:00:49;;;;;;;;;22.00;18.00;16.20;36.00;;;;;;111106;1240;45220;-61
2023/04/11 11:03:18;;;;;;;;;17.75;15.00;16.20;34.90;;;;;;111093;1243;54523;-62
2023/04/11 11:05:46;;;;;;;;;15.00;13.75;16.20;34.00;;;;;;111224;1243;54098;-62
2023/04/11 11:08:13;;;;;;;;;12.50;11.00;16.00;29.00;;;;;;111081;1243;49429;-62
2023/04/11 11:10:46;;;;;;;;;16.50;14.00;16.00;29.00;;;;;;111105;1245;49564;-62
2023/04/11 11:13:15;;;;;;;;;16.00;14.25;16.10;30.00;;;;;;111128;1242;45177;-60
2023/04/11 11:15:47;;;;;;;;;16.00;15.00;16.20;32.00;;;;;;111158;1240;55373;-62
2023/04/11 11:18:15;;;;;;;;;17.25;15.75;16.40;32.30;;;;;;111097;1244;54126;-61
2023/04/11 11:20:41;;;;;;;;;17.00;13.50;16.50;32.30;;;;;;111126;1239;49171;-62
2023/04/11 11:23:10;;;;;;;;;18.00;16.50;16.60;32.50;;;;;;111262;1243;49990;-62
2023/04/11 11:25:37;;;;;;;;;19.75;17.50;16.60;33.40;;;;;;111096;1244;45136;-61
2023/04/11 11:28:08;;;;;;;;;21.00;18.00;16.80;32.80;;;;;;111186;1243;54650;-62
2023/04/11 11:30:35;;;;;;;;;20.50;18.00;16.70;34.20;;;;;;111364;1243;54186;-61
2023/04/11 11:33:17;;;;;;;;;18.00;15.00;16.50;33.30;;;;;;111145;1239;50527;-61
2023/04/11 11:35:48;;;;;;;;;15.00;14.00;16.50;34.00;;;;;;111380;1240;49005;-63
2023/04/11 11:38:15;;;;;;;;;18.50;16.25;16.40;31.20;;;;;;111132;1240;45085;-62
2023/04/11 11:40:42;;;;;;;;;25.50;23.25;16.40;30.50;;;;;;111073;1241;55227;-62
2023/04/11 11:43:09;;;;;;;;;18.75;15.75;16.30;31.00;;;;;;111294;1242;55027;-61
2023/04/11 11:45:36;;;;;;;;;20.00;17.00;16.30;32.10;;;;;;111111;1241;49354;-61
2023/04/11 11:48:04;;;;;;;;;17.00;15.25;16.40;32.60;;;;;;111232;1244;48898;-62
2023/04/11 11:50:32;;;;;;;;;20.67;19.00;16.40;32.60;;;;;;111132;1243;45713;-62
2023/04/11 11:53:13;;;;;;;;;18.00;16.75;16.10;32.90;;;;;;111261;1241;55388;-62
2023/04/11 11:55:42;;;;;;;;;21.75;18.75;16.00;32.30;;;;;;111287;1241;53631;-62
2023/04/11 11:58:09;;;;;;;;;18.00;17.00;16.00;32.80;;;;;;111143;1240;50653;-61
2023/04/11 12:00:37;;;;;;;;;19.25;17.00;16.10;33.20;;;;;;111180;1245;50419;-62
2023/04/11 12:03:08;;;;;;;;;17.33;15.33;16.20;31.80;;;;;;111301;1243;45072;-61
2023/04/11 12:05:35;;;;;;;;;17.00;14.00;16.20;29.90;;;;;;111219;1241;55303;-62
2023/04/11 12:08:04;;;;;;;;;17.25;16.00;16.20;29.90;;;;;;111243;1244;53908;-62
2023/04/11 12:10:50;;;;;;;;;16.00;14.33;16.40;30.00;;;;;;111154;1243;49866;-62
2023/04/11 12:13:22;;;;;;;;;16.00;14.00;16.50;29.90;;;;;;111202;1243;48902;-62
2023/04/11 12:15:51;;;;;;;;;18.75;16.00;16.80;30.20;;;;;;111153;1243;45173;-61
2023/04/11 12:18:22;;;;;;;;;18.75;15.75;16.90;30.30;;;;;;111285;1241;54308;-61
2023/04/11 12:20:50;;;;;;;;;18.67;16.00;17.00;31.30;;;;;;111139;1239;54517;-60
2023/04/11 12:23:18;;;;;;;;;18.75;16.75;16.90;31.40;;;;;;111179;1243;49918;-61
2023/04/11 12:25:45;;;;;;;;;20.00;17.00;16.70;31.70;;;;;;111115;1240;49009;-61
2023/04/11 12:28:12;;;;;;;;;20.75;19.25;16.60;33.40;;;;;;111077;1240;45101;-61
2023/04/11 12:30:39;;;;;;;;;22.25;20.25;16.40;34.20;;;;;;111246;1242;54641;-61